sensor_id;sensor_type;location;lat;lon;timestamp;P1;durP1;ratioP1;P2;durP2;ratioP2
4569;SDS011;2297;51.442;6.996;2023-10-19T00:00:19;6.40;;;3.55;;
4569;SDS011;2297;51.442;6.996;2023-10-19T00:02:46;6.22;;;4.50;;
4569;SDS011;2297;51.442;6.996;2023-10-19T00:05:16;5.85;;;4.00;;
4569;SDS011;2297;51.442;6.996;2023-10-19T00:07:43;4.95;;;4.03;;
4569;SDS011;2297;51.442;6.996;2023-10-19T00:10:10;6.20;;;4.40;;
4569;SDS011;2297;51.442;6.996;2023-10-19T00:12:40;5.50;;;3.80;;
4569;SDS011;2297;51.442;6.996;2023-10-19T00:15:09;7.50;;;4.07;;
4569;SDS011;2297;51.442;6.996;2023-10-19T00:17:36;5.70;;;4.55;;
4569;SDS011;2297;51.442;6.996;2023-10-19T00:20:05;7.80;;;4.00;;
4569;SDS011;2297;51.442;6.996;2023-10-19T00:22:46;5.95;;;4.68;;
4569;SDS011;2297;51.442;6.996;2023-10-19T00:25:14;6.13;;;4.07;;
4569;SDS011;2297;51.442;6.996;2023-10-19T00:27:40;6.40;;;4.20;;
4569;SDS011;2297;51.442;6.996;2023-10-19T00:30:08;6.05;;;4.38;;
4569;SDS011;2297;51.442;6.996;2023-10-19T00:32:44;6.18;;;4.28;;
4569;SDS011;2297;51.442;6.996;2023-10-19T00:35:11;6.05;;;3.80;;
4569;SDS011;2297;51.442;6.996;2023-10-19T00:37:52;5.20;;;4.07;;
4569;SDS011;2297;51.442;6.996;2023-10-19T00:40:24;4.88;;;4.03;;
4569;SDS011;2297;51.442;6.996;2023-10-19T00:43:02;5.70;;;4.38;;
4569;SDS011;2297;51.442;6.996;2023-10-19T00:45:33;8.50;;;4.70;;
4569;SDS011;2297;51.442;6.996;2023-10-19T00:48:05;7.13;;;4.63;;
4569;SDS011;2297;51.442;6.996;2023-10-19T00:53:39;7.25;;;4.72;;
4569;SDS011;2297;51.442;6.996;2023-10-19T00:56:07;6.00;;;4.28;;
4569;SDS011;2297;51.442;6.996;2023-10-19T00:58:36;9.82;;;5.13;;
4569;SDS011;2297;51.442;6.996;2023-10-19T01:01:06;6.57;;;4.82;;
4569;SDS011;2297;51.442;6.996;2023-10-19T01:03:34;7.57;;;4.65;;
4569;SDS011;2297;51.442;6.996;2023-10-19T01:06:03;6.38;;;4.63;;
4569;SDS011;2297;51.442;6.996;2023-10-19T01:08:36;10.32;;;4.72;;
4569;SDS011;2297;51.442;6.996;2023-10-19T01:11:09;13.85;;;4.78;;
4569;SDS011;2297;51.442;6.996;2023-10-19T01:13:37;7.60;;;4.57;;
4569;SDS011;2297;51.442;6.996;2023-10-19T01:16:11;6.47;;;4.97;;
4569;SDS011;2297;51.442;6.996;2023-10-19T01:18:45;5.65;;;4.43;;
4569;SDS011;2297;51.442;6.996;2023-10-19T01:21:12;8.50;;;5.13;;
4569;SDS011;2297;51.442;6.996;2023-10-19T01:23:45;8.18;;;5.38;;
4569;SDS011;2297;51.442;6.996;2023-10-19T01:26:13;6.30;;;4.75;;
4569;SDS011;2297;51.442;6.996;2023-10-19T01:28:43;6.88;;;5.00;;
4569;SDS011;2297;51.442;6.996;2023-10-19T01:31:14;9.23;;;4.88;;
4569;SDS011;2297;51.442;6.996;2023-10-19T01:33:47;6.65;;;4.65;;
4569;SDS011;2297;51.442;6.996;2023-10-19T01:36:15;7.57;;;4.50;;
4569;SDS011;2297;51.442;6.996;2023-10-19T01:38:51;10.15;;;5.53;;
4569;SDS011;2297;51.442;6.996;2023-10-19T01:41:20;8.82;;;5.55;;
4569;SDS011;2297;51.442;6.996;2023-10-19T01:43:47;7.72;;;4.97;;
4569;SDS011;2297;51.442;6.996;2023-10-19T01:49:13;9.52;;;4.63;;
4569;SDS011;2297;51.442;6.996;2023-10-19T01:51:39;5.97;;;4.63;;
4569;SDS011;2297;51.442;6.996;2023-10-19T01:54:10;6.35;;;4.38;;
4569;SDS011;2297;51.442;6.996;2023-10-19T01:56:36;6.88;;;4.65;;
4569;SDS011;2297;51.442;6.996;2023-10-19T01:59:04;5.68;;;4.38;;
4569;SDS011;2297;51.442;6.996;2023-10-19T02:01:30;7.30;;;4.57;;
4569;SDS011;2297;51.442;6.996;2023-10-19T02:03:58;9.50;;;4.65;;
4569;SDS011;2297;51.442;6.996;2023-10-19T02:06:25;7.93;;;4.97;;
4569;SDS011;2297;51.442;6.996;2023-10-19T02:08:55;6.40;;;4.32;;
4569;SDS011;2297;51.442;6.996;2023-10-19T02:11:26;6.35;;;4.50;;
4569;SDS011;2297;51.442;6.996;2023-10-19T02:13:54;6.05;;;4.63;;
4569;SDS011;2297;51.442;6.996;2023-10-19T02:16:24;6.07;;;4.13;;
4569;SDS011;2297;51.442;6.996;2023-10-19T02:18:54;6.22;;;3.85;;
4569;SDS011;2297;51.442;6.996;2023-10-19T02:21:21;5.75;;;4.18;;
4569;SDS011;2297;51.442;6.996;2023-10-19T02:23:52;6.55;;;4.60;;
4569;SDS011;2297;51.442;6.996;2023-10-19T02:26:18;7.00;;;4.30;;
4569;SDS011;2297;51.442;6.996;2023-10-19T02:28:49;6.05;;;4.22;;
4569;SDS011;2297;51.442;6.996;2023-10-19T02:31:16;8.00;;;4.45;;
4569;SDS011;2297;51.442;6.996;2023-10-19T02:33:46;8.77;;;4.78;;
4569;SDS011;2297;51.442;6.996;2023-10-19T02:36:17;6.50;;;4.32;;
4569;SDS011;2297;51.442;6.996;2023-10-19T02:38:44;4.75;;;3.58;;
4569;SDS011;2297;51.442;6.996;2023-10-19T02:41:14;8.90;;;3.65;;
4569;SDS011;2297;51.442;6.996;2023-10-19T02:43:41;6.45;;;3.72;;
4569;SDS011;2297;51.442;6.996;2023-10-19T02:46:12;5.38;;;4.03;;
4569;SDS011;2297;51.442;6.996;2023-10-19T02:48:38;6.93;;;3.95;;
4569;SDS011;2297;51.442;6.996;2023-10-19T02:51:09;5.65;;;3.30;;
4569;SDS011;2297;51.442;6.996;2023-10-19T02:53:36;4.60;;;3.38;;
4569;SDS011;2297;51.442;6.996;2023-10-19T02:56:10;7.60;;;3.45;;
4569;SDS011;2297;51.442;6.996;2023-10-19T02:58:36;3.78;;;2.55;;
4569;SDS011;2297;51.442;6.996;2023-10-19T03:01:12;5.13;;;2.75;;
4569;SDS011;2297;51.442;6.996;2023-10-19T03:03:42;4.55;;;2.60;;
4569;SDS011;2297;51.442;6.996;2023-10-19T03:06:08;5.70;;;3.38;;
4569;SDS011;2297;51.442;6.996;2023-10-19T03:08:36;5.13;;;2.70;;
4569;SDS011;2297;51.442;6.996;2023-10-19T03:11:02;5.00;;;3.13;;
4569;SDS011;2297;51.442;6.996;2023-10-19T03:13:30;3.63;;;2.70;;
4569;SDS011;2297;51.442;6.996;2023-10-19T03:15:57;4.32;;;2.53;;
4569;SDS011;2297;51.442;6.996;2023-10-19T03:18:27;5.57;;;3.03;;
4569;SDS011;2297;51.442;6.996;2023-10-19T03:20:53;5.20;;;2.97;;
4569;SDS011;2297;51.442;6.996;2023-10-19T03:23:20;7.15;;;3.10;;
4569;SDS011;2297;51.442;6.996;2023-10-19T03:25:46;7.47;;;3.35;;
4569;SDS011;2297;51.442;6.996;2023-10-19T03:28:41;4.85;;;3.17;;
4569;SDS011;2297;51.442;6.996;2023-10-19T03:31:08;4.95;;;3.70;;
4569;SDS011;2297;51.442;6.996;2023-10-19T03:33:44;6.03;;;3.45;;
4569;SDS011;2297;51.442;6.996;2023-10-19T03:36:13;8.27;;;3.83;;
4569;SDS011;2297;51.442;6.996;2023-10-19T03:38:39;5.10;;;2.80;;
4569;SDS011;2297;51.442;6.996;2023-10-19T03:41:06;6.53;;;3.38;;
4569;SDS011;2297;51.442;6.996;2023-10-19T03:43:34;4.25;;;3.20;;
4569;SDS011;2297;51.442;6.996;2023-10-19T03:46:03;4.65;;;3.00;;
4569;SDS011;2297;51.442;6.996;2023-10-19T03:48:32;4.47;;;3.20;;
4569;SDS011;2297;51.442;6.996;2023-10-19T03:51:04;4.25;;;2.80;;
4569;SDS011;2297;51.442;6.996;2023-10-19T03:53:31;3.90;;;2.90;;
4569;SDS011;2297;51.442;6.996;2023-10-19T03:56:03;4.00;;;2.80;;
4569;SDS011;2297;51.442;6.996;2023-10-19T03:58:35;4.15;;;3.05;;
4569;SDS011;2297;51.442;6.996;2023-10-19T04:01:04;7.32;;;3.03;;
4569;SDS011;2297;51.442;6.996;2023-10-19T04:03:30;3.35;;;2.60;;
4569;SDS011;2297;51.442;6.996;2023-10-19T04:05:57;6.20;;;3.10;;
4569;SDS011;2297;51.442;6.996;2023-10-19T04:08:30;3.78;;;2.42;;
4569;SDS011;2297;51.442;6.996;2023-10-19T05:43:31;3.65;;;2.47;;
4569;SDS011;2297;51.442;6.996;2023-10-19T05:45:59;3.15;;;2.28;;
4569;SDS011;2297;51.442;6.996;2023-10-19T05:48:26;5.80;;;2.00;;
4569;SDS011;2297;51.442;6.996;2023-10-19T05:50:52;4.45;;;2.53;;
4569;SDS011;2297;51.442;6.996;2023-10-19T05:53:20;3.08;;;2.00;;
4569;SDS011;2297;51.442;6.996;2023-10-19T05:55:47;3.33;;;2.03;;
4569;SDS011;2297;51.442;6.996;2023-10-19T05:58:14;5.40;;;2.10;;
4569;SDS011;2297;51.442;6.996;2023-10-19T06:00:42;10.73;;;2.40;;
4569;SDS011;2297;51.442;6.996;2023-10-19T06:03:09;4.05;;;2.17;;
4569;SDS011;2297;51.442;6.996;2023-10-19T06:05:35;4.50;;;2.38;;
4569;SDS011;2297;51.442;6.996;2023-10-19T06:08:02;2.53;;;1.88;;
4569;SDS011;2297;51.442;6.996;2023-10-19T06:10:29;4.25;;;2.20;;
4569;SDS011;2297;51.442;6.996;2023-10-19T06:12:57;5.47;;;2.22;;
4569;SDS011;2297;51.442;6.996;2023-10-19T06:15:24;7.07;;;2.22;;
4569;SDS011;2297;51.442;6.996;2023-10-19T06:17:52;5.63;;;1.90;;
4569;SDS011;2297;51.442;6.996;2023-10-19T06:20:18;5.90;;;2.05;;
4569;SDS011;2297;51.442;6.996;2023-10-19T06:22:51;2.58;;;2.00;;
4569;SDS011;2297;51.442;6.996;2023-10-19T06:25:19;5.78;;;2.40;;
4569;SDS011;2297;51.442;6.996;2023-10-19T06:27:46;3.67;;;2.20;;
4569;SDS011;2297;51.442;6.996;2023-10-19T06:30:14;2.72;;;2.00;;
4569;SDS011;2297;51.442;6.996;2023-10-19T06:32:44;4.35;;;2.20;;
4569;SDS011;2297;51.442;6.996;2023-10-19T06:35:14;6.88;;;2.10;;
4569;SDS011;2297;51.442;6.996;2023-10-19T06:37:42;4.18;;;2.25;;
4569;SDS011;2297;51.442;6.996;2023-10-19T06:40:09;5.07;;;2.45;;
4569;SDS011;2297;51.442;6.996;2023-10-19T06:42:37;8.95;;;2.72;;
4569;SDS011;2297;51.442;6.996;2023-10-19T06:45:04;4.18;;;2.65;;
4569;SDS011;2297;51.442;6.996;2023-10-19T06:47:32;4.97;;;2.65;;
4569;SDS011;2297;51.442;6.996;2023-10-19T06:50:02;4.43;;;2.60;;
4569;SDS011;2297;51.442;6.996;2023-10-19T06:52:33;3.03;;;2.20;;
4569;SDS011;2297;51.442;6.996;2023-10-19T06:55:01;5.13;;;2.38;;
4569;SDS011;2297;51.442;6.996;2023-10-19T06:57:32;3.20;;;2.00;;
4569;SDS011;2297;51.442;6.996;2023-10-19T06:59:59;4.45;;;2.28;;
4569;SDS011;2297;51.442;6.996;2023-10-19T07:02:35;5.70;;;2.35;;
4569;SDS011;2297;51.442;6.996;2023-10-19T07:05:02;4.00;;;2.17;;
4569;SDS011;2297;51.442;6.996;2023-10-19T07:07:28;5.13;;;2.25;;
4569;SDS011;2297;51.442;6.996;2023-10-19T07:09:57;5.25;;;2.50;;
4569;SDS011;2297;51.442;6.996;2023-10-19T07:12:24;5.38;;;2.45;;
4569;SDS011;2297;51.442;6.996;2023-10-19T07:14:51;3.28;;;2.05;;
4569;SDS011;2297;51.442;6.996;2023-10-19T07:17:17;3.88;;;2.25;;
4569;SDS011;2297;51.442;6.996;2023-10-19T07:19:44;4.32;;;2.58;;
4569;SDS011;2297;51.442;6.996;2023-10-19T07:22:13;3.00;;;2.00;;
4569;SDS011;2297;51.442;6.996;2023-10-19T07:24:42;6.72;;;2.28;;
4569;SDS011;2297;51.442;6.996;2023-10-19T07:27:09;4.38;;;2.30;;
4569;SDS011;2297;51.442;6.996;2023-10-19T07:32:09;6.60;;;2.53;;
4569;SDS011;2297;51.442;6.996;2023-10-19T07:34:38;3.92;;;2.45;;
4569;SDS011;2297;51.442;6.996;2023-10-19T07:37:05;4.63;;;2.50;;
4569;SDS011;2297;51.442;6.996;2023-10-19T07:39:32;6.30;;;2.50;;
4569;SDS011;2297;51.442;6.996;2023-10-19T07:42:00;4.25;;;2.33;;
4569;SDS011;2297;51.442;6.996;2023-10-19T07:47:20;3.17;;;2.10;;
4569;SDS011;2297;51.442;6.996;2023-10-19T07:49:46;7.53;;;2.45;;
4569;SDS011;2297;51.442;6.996;2023-10-19T07:52:16;4.43;;;2.38;;
4569;SDS011;2297;51.442;6.996;2023-10-19T07:54:43;5.20;;;2.45;;
4569;SDS011;2297;51.442;6.996;2023-10-19T07:57:10;7.05;;;2.35;;
4569;SDS011;2297;51.442;6.996;2023-10-19T07:59:37;4.55;;;2.60;;
4569;SDS011;2297;51.442;6.996;2023-10-19T08:02:05;7.53;;;2.40;;
4569;SDS011;2297;51.442;6.996;2023-10-19T08:04:33;3.20;;;2.40;;
4569;SDS011;2297;51.442;6.996;2023-10-19T08:07:00;3.03;;;1.92;;
4569;SDS011;2297;51.442;6.996;2023-10-19T08:09:26;4.38;;;2.42;;
4569;SDS011;2297;51.442;6.996;2023-10-19T08:11:57;5.40;;;2.35;;
4569;SDS011;2297;51.442;6.996;2023-10-19T08:14:24;7.40;;;2.55;;
4569;SDS011;2297;51.442;6.996;2023-10-19T08:16:51;4.88;;;2.22;;
4569;SDS011;2297;51.442;6.996;2023-10-19T08:19:19;2.83;;;2.33;;
4569;SDS011;2297;51.442;6.996;2023-10-19T08:21:46;8.25;;;2.60;;
4569;SDS011;2297;51.442;6.996;2023-10-19T08:24:13;4.45;;;2.58;;
4569;SDS011;2297;51.442;6.996;2023-10-19T08:26:43;5.93;;;2.50;;
4569;SDS011;2297;51.442;6.996;2023-10-19T08:29:10;4.43;;;2.35;;
4569;SDS011;2297;51.442;6.996;2023-10-19T08:31:38;4.05;;;2.30;;
4569;SDS011;2297;51.442;6.996;2023-10-19T08:34:05;5.18;;;2.60;;
4569;SDS011;2297;51.442;6.996;2023-10-19T08:36:35;4.53;;;2.47;;
4569;SDS011;2297;51.442;6.996;2023-10-19T08:39:03;5.95;;;2.20;;
4569;SDS011;2297;51.442;6.996;2023-10-19T08:41:31;7.82;;;2.40;;
4569;SDS011;2297;51.442;6.996;2023-10-19T08:43:59;4.60;;;2.00;;
4569;SDS011;2297;51.442;6.996;2023-10-19T08:46:26;4.90;;;2.25;;
4569;SDS011;2297;51.442;6.996;2023-10-19T08:48:53;5.10;;;2.47;;
4569;SDS011;2297;51.442;6.996;2023-10-19T08:51:22;4.65;;;2.25;;
4569;SDS011;2297;51.442;6.996;2023-10-19T08:53:51;3.90;;;2.38;;
4569;SDS011;2297;51.442;6.996;2023-10-19T08:56:19;4.90;;;2.10;;
4569;SDS011;2297;51.442;6.996;2023-10-19T08:58:48;6.53;;;2.60;;
4569;SDS011;2297;51.442;6.996;2023-10-19T09:01:17;14.93;;;2.75;;
4569;SDS011;2297;51.442;6.996;2023-10-19T09:03:44;8.77;;;2.25;;
4569;SDS011;2297;51.442;6.996;2023-10-19T09:06:11;3.20;;;2.10;;
4569;SDS011;2297;51.442;6.996;2023-10-19T09:08:40;5.75;;;2.00;;
4569;SDS011;2297;51.442;6.996;2023-10-19T09:11:10;7.65;;;2.40;;
4569;SDS011;2297;51.442;6.996;2023-10-19T09:13:44;5.75;;;2.13;;
4569;SDS011;2297;51.442;6.996;2023-10-19T09:16:13;6.22;;;2.17;;
4569;SDS011;2297;51.442;6.996;2023-10-19T09:18:41;5.00;;;1.98;;
4569;SDS011;2297;51.442;6.996;2023-10-19T09:21:08;4.70;;;2.30;;
4569;SDS011;2297;51.442;6.996;2023-10-19T09:23:38;11.88;;;2.38;;
4569;SDS011;2297;51.442;6.996;2023-10-19T09:26:04;4.82;;;2.38;;
4569;SDS011;2297;51.442;6.996;2023-10-19T09:28:35;4.10;;;1.88;;
4569;SDS011;2297;51.442;6.996;2023-10-19T09:31:02;5.85;;;2.15;;
4569;SDS011;2297;51.442;6.996;2023-10-19T09:33:30;4.43;;;2.00;;
4569;SDS011;2297;51.442;6.996;2023-10-19T09:35:59;7.95;;;2.53;;
4569;SDS011;2297;51.442;6.996;2023-10-19T09:38:27;6.47;;;2.33;;
4569;SDS011;2297;51.442;6.996;2023-10-19T09:40:54;6.05;;;2.28;;
4569;SDS011;2297;51.442;6.996;2023-10-19T09:43:27;6.93;;;2.38;;
4569;SDS011;2297;51.442;6.996;2023-10-19T09:46:04;4.68;;;2.00;;
4569;SDS011;2297;51.442;6.996;2023-10-19T09:48:33;4.38;;;2.00;;
4569;SDS011;2297;51.442;6.996;2023-10-19T09:51:06;3.80;;;1.75;;
4569;SDS011;2297;51.442;6.996;2023-10-19T09:53:34;3.35;;;1.60;;
4569;SDS011;2297;51.442;6.996;2023-10-19T09:56:03;6.68;;;2.10;;
4569;SDS011;2297;51.442;6.996;2023-10-19T09:58:33;5.30;;;1.90;;
4569;SDS011;2297;51.442;6.996;2023-10-19T10:01:04;5.22;;;1.98;;
4569;SDS011;2297;51.442;6.996;2023-10-19T10:03:46;4.60;;;2.30;;
4569;SDS011;2297;51.442;6.996;2023-10-19T10:06:14;8.27;;;2.72;;
4569;SDS011;2297;51.442;6.996;2023-10-19T10:08:45;4.63;;;1.98;;
4569;SDS011;2297;51.442;6.996;2023-10-19T10:11:17;6.90;;;1.92;;
4569;SDS011;2297;51.442;6.996;2023-10-19T10:13:48;7.10;;;2.20;;
4569;SDS011;2297;51.442;6.996;2023-10-19T10:16:18;7.20;;;2.30;;
4569;SDS011;2297;51.442;6.996;2023-10-19T10:18:49;7.28;;;2.28;;
4569;SDS011;2297;51.442;6.996;2023-10-19T10:21:17;5.03;;;2.05;;
4569;SDS011;2297;51.442;6.996;2023-10-19T10:23:49;9.38;;;2.40;;
4569;SDS011;2297;51.442;6.996;2023-10-19T10:26:18;7.70;;;2.75;;
4569;SDS011;2297;51.442;6.996;2023-10-19T10:31:41;5.25;;;1.77;;
4569;SDS011;2297;51.442;6.996;2023-10-19T10:34:09;7.03;;;2.33;;
4569;SDS011;2297;51.442;6.996;2023-10-19T10:39:27;5.20;;;1.60;;
4569;SDS011;2297;51.442;6.996;2023-10-19T10:41:55;4.30;;;1.88;;
4569;SDS011;2297;51.442;6.996;2023-10-19T10:44:35;6.93;;;2.45;;
4569;SDS011;2297;51.442;6.996;2023-10-19T10:47:04;4.43;;;2.08;;
4569;SDS011;2297;51.442;6.996;2023-10-19T10:49:33;6.53;;;2.00;;
4569;SDS011;2297;51.442;6.996;2023-10-19T10:51:59;5.43;;;2.00;;
4569;SDS011;2297;51.442;6.996;2023-10-19T10:54:26;7.63;;;2.20;;
4569;SDS011;2297;51.442;6.996;2023-10-19T10:56:53;5.05;;;2.25;;
4569;SDS011;2297;51.442;6.996;2023-10-19T10:59:19;7.15;;;1.88;;
4569;SDS011;2297;51.442;6.996;2023-10-19T11:01:46;5.07;;;1.75;;
4569;SDS011;2297;51.442;6.996;2023-10-19T11:04:14;5.95;;;2.00;;
4569;SDS011;2297;51.442;6.996;2023-10-19T11:06:51;15.40;;;2.58;;
4569;SDS011;2297;51.442;6.996;2023-10-19T11:09:20;4.82;;;1.98;;
4569;SDS011;2297;51.442;6.996;2023-10-19T11:11:47;4.30;;;1.85;;
4569;SDS011;2297;51.442;6.996;2023-10-19T11:14:17;7.60;;;2.13;;
4569;SDS011;2297;51.442;6.996;2023-10-19T11:16:44;6.10;;;2.20;;
4569;SDS011;2297;51.442;6.996;2023-10-19T11:19:11;5.25;;;2.25;;
4569;SDS011;2297;51.442;6.996;2023-10-19T11:21:50;7.03;;;2.67;;
4569;SDS011;2297;51.442;6.996;2023-10-19T11:24:23;7.75;;;2.28;;
4569;SDS011;2297;51.442;6.996;2023-10-19T11:26:51;7.22;;;2.35;;
4569;SDS011;2297;51.442;6.996;2023-10-19T11:29:17;10.07;;;2.30;;
4569;SDS011;2297;51.442;6.996;2023-10-19T11:31:56;5.93;;;2.00;;
4569;SDS011;2297;51.442;6.996;2023-10-19T11:34:23;5.32;;;2.50;;
4569;SDS011;2297;51.442;6.996;2023-10-19T11:36:53;11.10;;;2.70;;
4569;SDS011;2297;51.442;6.996;2023-10-19T11:39:21;11.98;;;3.00;;
4569;SDS011;2297;51.442;6.996;2023-10-19T11:42:06;4.72;;;2.33;;
4569;SDS011;2297;51.442;6.996;2023-10-19T11:44:33;4.63;;;2.00;;
4569;SDS011;2297;51.442;6.996;2023-10-19T11:47:01;7.75;;;2.33;;
4569;SDS011;2297;51.442;6.996;2023-10-19T11:49:28;4.68;;;2.03;;
4569;SDS011;2297;51.442;6.996;2023-10-19T11:51:56;6.03;;;1.90;;
4569;SDS011;2297;51.442;6.996;2023-10-19T11:54:23;8.40;;;2.00;;
4569;SDS011;2297;51.442;6.996;2023-10-19T11:57:03;5.75;;;2.03;;
4569;SDS011;2297;51.442;6.996;2023-10-19T11:59:30;10.45;;;2.20;;
4569;SDS011;2297;51.442;6.996;2023-10-19T12:01:56;9.57;;;2.13;;
4569;SDS011;2297;51.442;6.996;2023-10-19T12:04:24;8.27;;;2.47;;
4569;SDS011;2297;51.442;6.996;2023-10-19T12:06:51;6.97;;;2.28;;
4569;SDS011;2297;51.442;6.996;2023-10-19T12:09:19;6.28;;;1.98;;
4569;SDS011;2297;51.442;6.996;2023-10-19T12:11:49;4.65;;;2.10;;
4569;SDS011;2297;51.442;6.996;2023-10-19T12:14:18;7.28;;;2.20;;
4569;SDS011;2297;51.442;6.996;2023-10-19T12:16:46;5.18;;;2.20;;
4569;SDS011;2297;51.442;6.996;2023-10-19T12:19:12;7.20;;;1.98;;
4569;SDS011;2297;51.442;6.996;2023-10-19T12:21:42;3.88;;;1.52;;
4569;SDS011;2297;51.442;6.996;2023-10-19T12:24:09;4.75;;;1.85;;
4569;SDS011;2297;51.442;6.996;2023-10-19T12:26:37;12.23;;;2.75;;
4569;SDS011;2297;51.442;6.996;2023-10-19T12:29:04;5.97;;;2.00;;
4569;SDS011;2297;51.442;6.996;2023-10-19T12:31:34;10.27;;;2.35;;
4569;SDS011;2297;51.442;6.996;2023-10-19T12:34:04;9.25;;;2.40;;
4569;SDS011;2297;51.442;6.996;2023-10-19T12:36:31;11.18;;;2.55;;
4569;SDS011;2297;51.442;6.996;2023-10-19T12:38:59;12.30;;;2.67;;
4569;SDS011;2297;51.442;6.996;2023-10-19T12:41:27;7.63;;;2.67;;
4569;SDS011;2297;51.442;6.996;2023-10-19T12:43:55;7.88;;;2.33;;
4569;SDS011;2297;51.442;6.996;2023-10-19T12:46:24;6.05;;;2.10;;
4569;SDS011;2297;51.442;6.996;2023-10-19T12:48:52;6.65;;;2.05;;
4569;SDS011;2297;51.442;6.996;2023-10-19T12:51:20;5.82;;;2.03;;
4569;SDS011;2297;51.442;6.996;2023-10-19T12:53:49;4.80;;;2.22;;
4569;SDS011;2297;51.442;6.996;2023-10-19T12:56:16;9.43;;;2.33;;
4569;SDS011;2297;51.442;6.996;2023-10-19T12:58:43;4.78;;;1.92;;
4569;SDS011;2297;51.442;6.996;2023-10-19T13:01:11;7.80;;;2.05;;
4569;SDS011;2297;51.442;6.996;2023-10-19T13:03:41;9.02;;;1.73;;
4569;SDS011;2297;51.442;6.996;2023-10-19T13:06:10;9.27;;;2.30;;
4569;SDS011;2297;51.442;6.996;2023-10-19T13:08:37;5.40;;;2.20;;
4569;SDS011;2297;51.442;6.996;2023-10-19T13:11:05;7.10;;;2.28;;
4569;SDS011;2297;51.442;6.996;2023-10-19T13:13:32;5.53;;;2.00;;
4569;SDS011;2297;51.442;6.996;2023-10-19T13:16:01;5.65;;;2.08;;
4569;SDS011;2297;51.442;6.996;2023-10-19T13:18:32;8.98;;;2.72;;
4569;SDS011;2297;51.442;6.996;2023-10-19T13:21:06;10.20;;;2.33;;
4569;SDS011;2297;51.442;6.996;2023-10-19T13:23:36;7.55;;;2.30;;
4569;SDS011;2297;51.442;6.996;2023-10-19T13:26:02;5.85;;;2.50;;
4569;SDS011;2297;51.442;6.996;2023-10-19T13:28:42;10.23;;;2.78;;
4569;SDS011;2297;51.442;6.996;2023-10-19T13:31:09;5.88;;;2.60;;
4569;SDS011;2297;51.442;6.996;2023-10-19T13:33:37;7.30;;;2.10;;
4569;SDS011;2297;51.442;6.996;2023-10-19T13:36:05;6.15;;;2.58;;
4569;SDS011;2297;51.442;6.996;2023-10-19T13:38:32;9.68;;;3.50;;
4569;SDS011;2297;51.442;6.996;2023-10-19T13:41:02;9.45;;;3.13;;
4569;SDS011;2297;51.442;6.996;2023-10-19T13:43:32;7.20;;;2.17;;
4569;SDS011;2297;51.442;6.996;2023-10-19T13:45:59;10.48;;;2.67;;
4569;SDS011;2297;51.442;6.996;2023-10-19T13:48:26;6.43;;;2.38;;
4569;SDS011;2297;51.442;6.996;2023-10-19T13:50:54;6.95;;;2.55;;
4569;SDS011;2297;51.442;6.996;2023-10-19T13:53:25;9.35;;;2.40;;
4569;SDS011;2297;51.442;6.996;2023-10-19T13:56:07;6.32;;;2.45;;
4569;SDS011;2297;51.442;6.996;2023-10-19T13:58:36;6.10;;;2.40;;
4569;SDS011;2297;51.442;6.996;2023-10-19T14:01:06;8.48;;;2.58;;
4569;SDS011;2297;51.442;6.996;2023-10-19T14:03:33;9.55;;;2.60;;
4569;SDS011;2297;51.442;6.996;2023-10-19T14:06:04;5.60;;;2.17;;
4569;SDS011;2297;51.442;6.996;2023-10-19T14:08:30;7.95;;;2.60;;
4569;SDS011;2297;51.442;6.996;2023-10-19T14:11:00;8.80;;;2.58;;
4569;SDS011;2297;51.442;6.996;2023-10-19T14:13:27;8.32;;;3.03;;
4569;SDS011;2297;51.442;6.996;2023-10-19T14:15:54;5.75;;;2.70;;
4569;SDS011;2297;51.442;6.996;2023-10-19T14:18:21;11.43;;;3.10;;
4569;SDS011;2297;51.442;6.996;2023-10-19T14:20:47;6.07;;;2.97;;
4569;SDS011;2297;51.442;6.996;2023-10-19T14:23:15;9.35;;;2.75;;
4569;SDS011;2297;51.442;6.996;2023-10-19T14:25:42;6.13;;;2.58;;
4569;SDS011;2297;51.442;6.996;2023-10-19T14:28:09;7.65;;;2.25;;
4569;SDS011;2297;51.442;6.996;2023-10-19T14:30:37;7.55;;;2.60;;
4569;SDS011;2297;51.442;6.996;2023-10-19T14:33:03;7.10;;;2.67;;
4569;SDS011;2297;51.442;6.996;2023-10-19T14:35:35;10.48;;;2.72;;
4569;SDS011;2297;51.442;6.996;2023-10-19T14:38:04;6.25;;;1.77;;
4569;SDS011;2297;51.442;6.996;2023-10-19T14:40:32;6.28;;;2.53;;
4569;SDS011;2297;51.442;6.996;2023-10-19T14:42:59;6.05;;;2.30;;
4569;SDS011;2297;51.442;6.996;2023-10-19T14:45:27;9.55;;;2.88;;
4569;SDS011;2297;51.442;6.996;2023-10-19T14:47:55;6.35;;;2.50;;
4569;SDS011;2297;51.442;6.996;2023-10-19T14:50:23;9.32;;;2.58;;
4569;SDS011;2297;51.442;6.996;2023-10-19T14:52:52;6.75;;;2.42;;
4569;SDS011;2297;51.442;6.996;2023-10-19T14:55:19;8.60;;;2.25;;
4569;SDS011;2297;51.442;6.996;2023-10-19T14:57:48;6.53;;;2.47;;
4569;SDS011;2297;51.442;6.996;2023-10-19T15:00:18;6.82;;;2.40;;
4569;SDS011;2297;51.442;6.996;2023-10-19T15:02:51;7.57;;;2.60;;
4569;SDS011;2297;51.442;6.996;2023-10-19T15:05:19;5.10;;;2.30;;
4569;SDS011;2297;51.442;6.996;2023-10-19T15:07:50;7.93;;;2.60;;
4569;SDS011;2297;51.442;6.996;2023-10-19T15:10:18;11.73;;;2.50;;
4569;SDS011;2297;51.442;6.996;2023-10-19T15:12:47;7.68;;;2.17;;
4569;SDS011;2297;51.442;6.996;2023-10-19T15:15:14;6.07;;;2.42;;
4569;SDS011;2297;51.442;6.996;2023-10-19T15:17:41;8.07;;;2.97;;
4569;SDS011;2297;51.442;6.996;2023-10-19T15:20:10;8.02;;;2.60;;
4569;SDS011;2297;51.442;6.996;2023-10-19T15:22:39;8.45;;;2.90;;
4569;SDS011;2297;51.442;6.996;2023-10-19T15:25:07;6.50;;;2.50;;
4569;SDS011;2297;51.442;6.996;2023-10-19T15:27:33;6.65;;;2.45;;
4569;SDS011;2297;51.442;6.996;2023-10-19T15:30:02;9.15;;;3.10;;
4569;SDS011;2297;51.442;6.996;2023-10-19T15:32:30;10.32;;;2.53;;
4569;SDS011;2297;51.442;6.996;2023-10-19T15:34:57;6.40;;;2.88;;
4569;SDS011;2297;51.442;6.996;2023-10-19T15:37:24;8.80;;;2.60;;
4569;SDS011;2297;51.442;6.996;2023-10-19T15:39:51;5.60;;;2.28;;
4569;SDS011;2297;51.442;6.996;2023-10-19T15:42:17;6.25;;;2.97;;
4569;SDS011;2297;51.442;6.996;2023-10-19T15:44:46;5.22;;;2.42;;
4569;SDS011;2297;51.442;6.996;2023-10-19T15:47:15;8.85;;;2.78;;
4569;SDS011;2297;51.442;6.996;2023-10-19T15:49:45;8.23;;;2.47;;
4569;SDS011;2297;51.442;6.996;2023-10-19T15:52:13;8.35;;;3.05;;
4569;SDS011;2297;51.442;6.996;2023-10-19T15:54:40;7.30;;;2.97;;
4569;SDS011;2297;51.442;6.996;2023-10-19T15:57:07;5.88;;;2.75;;
4569;SDS011;2297;51.442;6.996;2023-10-19T15:59:34;5.65;;;2.97;;
4569;SDS011;2297;51.442;6.996;2023-10-19T16:02:00;9.10;;;2.80;;
4569;SDS011;2297;51.442;6.996;2023-10-19T16:04:28;5.55;;;2.85;;
4569;SDS011;2297;51.442;6.996;2023-10-19T16:06:57;5.50;;;2.25;;
4569;SDS011;2297;51.442;6.996;2023-10-19T16:09:24;5.55;;;2.20;;
4569;SDS011;2297;51.442;6.996;2023-10-19T16:11:51;8.98;;;2.83;;
4569;SDS011;2297;51.442;6.996;2023-10-19T16:14:18;6.43;;;2.85;;
4569;SDS011;2297;51.442;6.996;2023-10-19T16:16:45;7.45;;;2.63;;
4569;SDS011;2297;51.442;6.996;2023-10-19T16:19:11;5.47;;;2.42;;
4569;SDS011;2297;51.442;6.996;2023-10-19T16:21:40;5.15;;;2.40;;
4569;SDS011;2297;51.442;6.996;2023-10-19T16:24:09;5.18;;;2.70;;
4569;SDS011;2297;51.442;6.996;2023-10-19T16:26:38;10.00;;;3.20;;
4569;SDS011;2297;51.442;6.996;2023-10-19T16:29:20;5.85;;;2.80;;
4569;SDS011;2297;51.442;6.996;2023-10-19T16:31:47;6.82;;;2.80;;
4569;SDS011;2297;51.442;6.996;2023-10-19T16:34:14;9.10;;;2.80;;
4569;SDS011;2297;51.442;6.996;2023-10-19T16:36:43;6.70;;;3.00;;
4569;SDS011;2297;51.442;6.996;2023-10-19T16:39:10;7.18;;;2.78;;
4569;SDS011;2297;51.442;6.996;2023-10-19T16:41:41;9.32;;;2.97;;
4569;SDS011;2297;51.442;6.996;2023-10-19T16:44:10;6.95;;;3.38;;
4569;SDS011;2297;51.442;6.996;2023-10-19T16:46:37;16.00;;;3.85;;
4569;SDS011;2297;51.442;6.996;2023-10-19T16:49:04;11.45;;;3.97;;
4569;SDS011;2297;51.442;6.996;2023-10-19T16:51:31;4.25;;;2.95;;
4569;SDS011;2297;51.442;6.996;2023-10-19T16:54:06;10.32;;;3.22;;
4569;SDS011;2297;51.442;6.996;2023-10-19T16:56:33;5.93;;;3.20;;
4569;SDS011;2297;51.442;6.996;2023-10-19T16:59:00;6.80;;;3.30;;
4569;SDS011;2297;51.442;6.996;2023-10-19T17:01:27;7.18;;;3.13;;
4569;SDS011;2297;51.442;6.996;2023-10-19T17:03:52;7.13;;;3.17;;
4569;SDS011;2297;51.442;6.996;2023-10-19T17:06:22;8.10;;;3.50;;
4569;SDS011;2297;51.442;6.996;2023-10-19T17:08:49;7.28;;;3.60;;
4569;SDS011;2297;51.442;6.996;2023-10-19T17:11:17;8.32;;;3.60;;
4569;SDS011;2297;51.442;6.996;2023-10-19T17:13:44;11.27;;;3.65;;